Terminal Aerodrome Forecast
Issued by NWS Melbourne, FL

Home | Current Version | Previous Version | Text Only | Print | Product List | Glossary On
Versions: 1 2 3 4 5 6 7 8 9 10 11 12 13 14 15 16
000
FTUS42 KMLB 232024 AAB
TAFMLB
TAF AMD
KMLB 232024Z 2320/2418 08017G25KT P6SM VCSH SCT025 SCT030 OVC040
      TEMPO 2320/2322 5SM SHRA BKN025 OVC035
     FM232200 06017G24KT P6SM SCT030 OVC050
     FM240400 07011KT P6SM FEW030 BKN100
     FM241400 09015G23KT P6SM SCT030 BKN120=

USA.gov is the U.S. government's official web portal to all federal, state and local government web resources and services.